Time;durP1;ratioP1;P1;durP2;ratioP2;P2;SDS_P1;SDS_P2;PMS_P1;PMS_P2;Temp;Humidity;BMP_temperature;BMP_pressure;BME280_temperature;BME280_humidity;BME280_pressure;Samples;Min_cycle;Max_cycle;Signal;HPM_P1;HPM_P2
2021/10/22 00:00:14;;;;;;;1.20;0.93;;;;;;;10.06;46.57;96523.72;1727606;81;27423;-87
2021/10/22 00:02:43;;;;;;;1.45;0.70;;;;;;;10.06;46.59;96531.81;1727178;81;26586;-84
2021/10/22 00:05:10;;;;;;;2.17;0.90;;;;;;;10.08;46.68;96525.67;1727610;81;25799;-85
2021/10/22 00:07:37;;;;;;;2.90;1.00;;;;;;;10.09;46.69;96530.02;1727559;81;25796;-88
2021/10/22 00:10:06;;;;;;;1.47;0.88;;;;;;;10.08;46.67;96529.72;1727539;81;25778;-85
2021/10/22 00:12:32;;;;;;;2.15;0.90;;;;;;;10.09;46.80;96531.36;1727628;81;27881;-84
2021/10/22 00:14:59;;;;;;;1.22;0.90;;;;;;;10.03;46.98;96541.17;1722915;81;25773;-85
2021/10/22 00:17:26;;;;;;;1.80;0.80;;;;;;;9.95;47.32;96540.69;1712117;82;25310;-86
2021/10/22 00:19:53;;;;;;;1.90;0.72;;;;;;;9.93;47.16;96534.69;1727627;81;25787;-84
2021/10/22 00:22:20;;;;;;;4.62;0.78;;;;;;;9.92;47.46;96536.56;1727529;82;25747;-84
2021/10/22 00:24:46;;;;;;;2.50;0.98;;;;;;;9.89;47.77;96541.09;1717400;81;27302;-84
2021/10/22 00:27:13;;;;;;;1.77;1.02;;;;;;;9.85;47.52;96529.62;1727671;81;25771;-83
2021/10/22 00:29:39;;;;;;;1.80;1.00;;;;;;;9.86;47.62;96532.09;1727797;81;26439;-84
2021/10/22 00:32:06;;;;;;;3.20;1.32;;;;;;;9.82;48.02;96519.30;1727570;81;25632;-84
2021/10/22 00:34:33;;;;;;;2.83;0.80;;;;;;;9.79;47.86;96530.52;1727325;82;25669;-84
2021/10/22 00:37:00;;;;;;;1.67;0.80;;;;;;;9.79;47.74;96523.27;1727578;82;28280;-84
2021/10/22 00:39:27;;;;;;;1.80;0.80;;;;;;;9.81;47.82;96524.38;1727422;81;26470;-83
2021/10/22 00:41:54;;;;;;;2.10;0.98;;;;;;;9.82;47.83;96529.55;1727453;81;26390;-83
2021/10/22 00:44:20;;;;;;;1.55;1.10;;;;;;;9.84;47.94;96530.67;1727514;82;25811;-83
2021/10/22 00:46:47;;;;;;;6.65;1.27;;;;;;;9.85;48.05;96539.88;1727713;81;25855;-83
2021/10/22 00:49:14;;;;;;;2.33;0.90;;;;;;;9.86;47.96;96539.36;1727528;81;27446;-84
2021/10/22 00:51:42;;;;;;;5.22;1.07;;;;;;;9.90;48.00;96532.47;1727549;81;25888;-83
2021/10/22 00:54:13;;;;;;;2.22;0.78;;;;;;;9.91;48.02;96538.95;1727584;81;25728;-82
2021/10/22 00:56:40;;;;;;;1.47;0.68;;;;;;;9.94;47.97;96535.81;1734883;81;25921;-82
2021/10/22 00:59:07;;;;;;;2.47;0.90;;;;;;;9.96;48.02;96537.77;1737905;81;25728;-83
2021/10/22 01:01:40;;;;;;;2.98;0.72;;;;;;;9.98;48.04;96541.06;1737958;81;27393;-83
2021/10/22 01:04:08;;;;;;;3.37;0.90;;;;;;;10.00;48.03;96530.05;1737641;81;26334;-83
2021/10/22 01:06:41;;;;;;;2.02;1.00;;;;;;;10.02;48.01;96539.53;1738021;81;25702;-83
2021/10/22 01:09:12;;;;;;;3.00;1.00;;;;;;;10.04;48.11;96537.95;1738049;81;26364;-83
2021/10/22 01:11:40;;;;;;;1.22;0.90;;;;;;;10.04;48.12;96531.22;1738102;81;25808;-82
2021/10/22 01:14:09;;;;;;;3.60;1.02;;;;;;;10.05;48.15;96528.81;1737955;81;27403;-82
2021/10/22 01:16:40;;;;;;;2.72;1.00;;;;;;;10.06;48.08;96527.77;1737887;81;25815;-81
2021/10/22 01:19:14;;;;;;;1.42;0.80;;;;;;;10.05;48.07;96532.86;1737966;81;25769;-84
2021/10/22 01:21:41;;;;;;;3.72;0.90;;;;;;;10.04;48.07;96527.17;1737193;81;26400;-81
2021/10/22 01:24:08;;;;;;;4.22;1.12;;;;;;;10.05;48.10;96535.56;1737726;81;25724;-83
2021/10/22 01:26:35;;;;;;;5.03;1.15;;;;;;;10.06;48.06;96530.47;1737995;81;28332;-80
2021/10/22 01:29:02;;;;;;;1.00;0.80;;;;;;;10.06;48.10;96536.69;1737627;81;25498;-81
2021/10/22 01:31:28;;;;;;;2.20;1.00;;;;;;;10.06;48.13;96535.33;1737956;81;25854;-82
2021/10/22 01:33:55;;;;;;;2.98;1.25;;;;;;;10.04;48.12;96529.34;1737962;81;26461;-83
2021/10/22 01:36:23;;;;;;;3.87;0.93;;;;;;;10.05;48.21;96530.17;1737973;81;25752;-83
2021/10/22 01:38:50;;;;;;;2.45;1.00;;;;;;;10.04;48.22;96537.95;1737984;81;27367;-82
2021/10/22 01:41:17;;;;;;;2.47;0.80;;;;;;;10.01;48.25;96535.22;1737838;81;25827;-83
2021/10/22 01:43:46;;;;;;;1.98;0.90;;;;;;;9.99;48.34;96527.88;1738022;81;25731;-82
2021/10/22 01:46:12;;;;;;;3.08;0.98;;;;;;;9.98;48.45;96521.36;1738021;81;25767;-83
2021/10/22 01:48:39;;;;;;;1.77;0.82;;;;;;;9.95;48.48;96519.12;1777843;80;25797;-81
2021/10/22 01:51:06;;;;;;;3.20;1.00;;;;;;;9.95;48.52;96523.16;1754201;78;28132;-83
2021/10/22 01:53:33;;;;;;;1.12;0.90;;;;;;;9.94;48.57;96526.91;1678298;85;25799;-83
2021/10/22 01:56:00;;;;;;;2.15;1.00;;;;;;;9.92;48.68;96525.78;1682624;85;25781;-83
2021/10/22 01:58:27;;;;;;;3.42;0.98;;;;;;;9.92;48.70;96534.39;1683346;83;25795;-83
2021/10/22 02:00:53;;;;;;;2.90;1.00;;;;;;;9.91;48.76;96534.09;1684350;84;25783;-84
2021/10/22 02:03:20;;;;;;;2.55;1.00;;;;;;;9.89;48.87;96532.17;1684287;84;28059;-82
2021/10/22 02:05:47;;;;;;;2.70;1.00;;;;;;;9.88;48.93;96534.57;1684329;84;25700;-83
2021/10/22 02:08:13;;;;;;;1.90;1.00;;;;;;;9.87;48.90;96530.23;1684433;85;25766;-83
2021/10/22 02:10:41;;;;;;;1.25;0.80;;;;;;;9.85;48.95;96532.33;1684409;84;26436;-83
2021/10/22 02:13:07;;;;;;;3.40;1.07;;;;;;;9.83;49.01;96538.46;1684218;84;25867;-82
2021/10/22 02:15:34;;;;;;;1.47;0.80;;;;;;;9.81;49.09;96535.16;1684346;84;27405;-81
2021/10/22 02:18:01;;;;;;;1.87;1.32;;;;;;;9.79;49.13;96541.30;1684249;84;25698;-82
2021/10/22 02:20:27;;;;;;;4.05;1.10;;;;;;;9.78;49.18;96539.69;1684359;84;25856;-81
2021/10/22 02:22:54;;;;;;;2.05;0.90;;;;;;;9.78;49.24;96553.16;1685272;85;25732;-83
2021/10/22 02:25:22;;;;;;;2.70;0.95;;;;;;;9.77;49.28;96550.16;1677381;84;25482;-84
2021/10/22 02:27:49;;;;;;;2.27;1.02;;;;;;;9.75;49.38;96547.17;1684341;84;27370;-84
2021/10/22 02:30:15;;;;;;;1.70;1.02;;;;;;;9.75;49.49;96546.34;1684174;85;25318;-83
2021/10/22 02:32:42;;;;;;;2.15;0.98;;;;;;;9.74;49.60;96545.52;1677944;85;25799;-83
2021/10/22 02:35:09;;;;;;;2.02;1.00;;;;;;;9.75;49.62;96544.48;1677201;84;25720;-82
2021/10/22 02:37:36;;;;;;;3.92;1.37;;;;;;;9.74;49.71;96537.96;1684357;84;25818;-82
2021/10/22 02:40:04;;;;;;;2.85;1.10;;;;;;;9.72;49.76;96540.87;1684369;84;28186;-84
2021/10/22 02:42:34;;;;;;;2.60;1.12;;;;;;;9.70;49.82;96529.50;1684442;84;25873;-82
2021/10/22 02:45:00;;;;;;;3.20;1.10;;;;;;;9.70;49.92;96526.80;1684513;85;25747;-83
2021/10/22 02:47:27;;;;;;;4.15;1.02;;;;;;;9.71;50.01;96535.19;1684421;84;25706;-83
2021/10/22 02:49:53;;;;;;;3.65;1.10;;;;;;;9.68;50.08;96535.63;1684517;85;25802;-81
2021/10/22 02:52:20;;;;;;;1.92;0.90;;;;;;;9.67;50.15;96538.03;1684196;84;27271;-83
2021/10/22 02:54:47;;;;;;;2.25;0.90;;;;;;;9.67;50.28;96535.33;1684459;84;25719;-86
2021/10/22 02:57:13;;;;;;;5.60;1.22;;;;;;;9.66;50.32;96536.38;1684372;84;25770;-82
2021/10/22 02:59:40;;;;;;;1.55;0.90;;;;;;;9.65;50.40;96539.33;1684521;84;26410;-82
2021/10/22 03:02:06;;;;;;;4.47;1.00;;;;;;;9.64;50.54;96537.68;1684628;84;25691;-83
2021/10/22 03:04:33;;;;;;;4.25;1.37;;;;;;;9.63;50.60;96544.94;1684433;84;27409;-83
2021/10/22 03:07:00;;;;;;;2.22;0.85;;;;;;;9.62;50.76;96547.33;1684463;84;25706;-82
2021/10/22 03:09:26;;;;;;;3.10;1.00;;;;;;;9.62;50.85;96540.59;1684355;84;25765;-82
2021/10/22 03:11:53;;;;;;;1.95;0.93;;;;;;;9.62;50.87;96547.86;1684401;84;25804;-83
2021/10/22 03:14:20;;;;;;;6.20;1.02;;;;;;;9.60;50.96;96549.42;1684398;85;25790;-82
2021/10/22 03:16:47;;;;;;;3.98;1.20;;;;;;;9.59;51.03;96557.20;1684420;84;27493;-84
2021/10/22 03:19:14;;;;;;;4.42;0.88;;;;;;;9.58;51.14;96558.25;1684470;85;26590;-82
2021/10/22 03:21:41;;;;;;;3.42;1.37;;;;;;;9.57;51.30;96559.82;1684434;84;25776;-82
2021/10/22 03:24:08;;;;;;;4.53;1.10;;;;;;;9.57;51.46;96560.64;1684503;84;25788;-85
2021/10/22 03:26:38;;;;;;;3.47;1.20;;;;;;;9.55;51.51;96558.70;1684746;84;25767;-82
2021/10/22 03:29:05;;;;;;;3.47;1.20;;;;;;;9.56;51.57;96571.13;1684898;84;28171;-82
2021/10/22 03:31:32;;;;;;;4.15;1.07;;;;;;;9.53;51.67;96563.52;1684259;84;25819;-82
2021/10/22 03:33:59;;;;;;;2.95;0.82;;;;;;;9.56;51.72;96561.69;1684417;85;25838;-83
2021/10/22 03:36:26;;;;;;;3.35;1.02;;;;;;;9.56;51.84;96565.73;1684386;84;25674;-83
2021/10/22 03:38:53;;;;;;;6.90;2.70;;;;;;;9.57;51.93;96568.73;1684449;84;25772;-86
2021/10/22 03:41:19;;;;;;;5.20;1.12;;;;;;;9.58;52.00;96574.94;1684453;84;26665;-82
2021/10/22 03:43:46;;;;;;;2.77;1.07;;;;;;;9.57;52.04;96571.42;1684430;84;25783;-83
2021/10/22 03:46:13;;;;;;;2.30;0.85;;;;;;;9.57;52.15;96567.38;1684448;84;25786;-81
2021/10/22 03:48:39;;;;;;;2.85;1.00;;;;;;;9.55;52.19;96566.78;1684361;84;26450;-83
2021/10/22 03:51:06;;;;;;;4.55;0.93;;;;;;;9.53;52.31;96564.86;1684562;84;25685;-82
2021/10/22 03:53:33;;;;;;;3.95;1.00;;;;;;;9.53;52.42;96578.33;1685957;84;28067;-83
2021/10/22 03:55:59;;;;;;;5.95;1.30;;;;;;;9.51;52.47;96576.38;1686238;84;25348;-84
2021/10/22 03:58:26;;;;;;;7.55;1.67;;;;;;;9.51;52.54;96587.16;1686367;84;25790;-83
2021/10/22 04:00:52;;;;;;;4.35;1.70;;;;;;;9.51;52.65;96600.63;1686428;84;26000;-87
2021/10/22 04:03:19;;;;;;;4.70;1.42;;;;;;;9.51;52.76;96599.28;1686342;84;25813;-83
2021/10/22 04:05:46;;;;;;;4.22;1.30;;;;;;;9.53;52.80;96608.48;1686405;84;27356;-83
2021/10/22 04:08:12;;;;;;;3.60;1.75;;;;;;;9.54;52.79;96612.28;1686321;84;26225;-85
2021/10/22 04:10:43;;;;;;;6.55;1.02;;;;;;;9.54;52.87;96609.58;1686393;84;25767;-82
2021/10/22 04:13:12;;;;;;;2.90;0.82;;;;;;;9.56;52.95;96608.84;1686164;83;25841;-83
2021/10/22 04:15:40;;;;;;;3.67;1.37;;;;;;;9.58;53.03;96613.48;1686666;84;25760;-83
2021/10/22 04:18:07;;;;;;;3.25;1.10;;;;;;;9.59;53.11;96608.40;1686497;84;28307;-83
2021/10/22 04:20:34;;;;;;;3.05;0.98;;;;;;;9.59;53.17;96604.36;1686355;84;25770;-81
2021/10/22 04:23:01;;;;;;;4.28;1.40;;;;;;;9.60;53.12;96613.27;1686576;84;26132;-83
2021/10/22 04:25:29;;;;;;;2.52;1.42;;;;;;;9.62;53.22;96626.00;1687258;84;25720;-83
2021/10/22 04:27:56;;;;;;;4.08;1.20;;;;;;;9.63;53.17;96622.25;1686359;84;25744;-83
2021/10/22 04:30:23;;;;;;;4.12;1.32;;;;;;;9.65;53.32;96633.12;1686089;84;28233;-82
2021/10/22 04:32:49;;;;;;;3.77;1.45;;;;;;;9.67;53.28;96625.61;1686301;84;25882;-82
2021/10/22 04:35:16;;;;;;;6.75;2.17;;;;;;;9.68;53.33;96628.60;1686427;84;25726;-82
2021/10/22 04:38:01;;;;;;;4.25;1.95;;;;;;;9.69;53.36;96631.60;1686423;84;25871;-82
2021/10/22 04:40:35;;;;;;;3.67;2.37;;;;;;;9.72;53.29;96632.51;1688210;83;25743;-82
2021/10/22 04:43:08;;;;;;;7.62;2.42;;;;;;;9.73;53.34;96630.11;1686353;84;27463;-83
2021/10/22 04:45:38;;;;;;;5.08;2.08;;;;;;;9.75;53.47;96635.28;1686223;84;25757;-82
2021/10/22 04:48:09;;;;;;;4.70;1.30;;;;;;;9.78;53.93;96630.77;1686385;84;25767;-82
2021/10/22 04:50:41;;;;;;;3.52;0.95;;;;;;;9.86;54.02;96634.53;1686396;84;25789;-82
2021/10/22 04:53:08;;;;;;;2.10;0.95;;;;;;;9.93;54.33;96635.78;1686464;83;25873;-83
2021/10/22 04:55:38;;;;;;;3.87;1.47;;;;;;;10.00;54.65;96636.55;1686379;84;27334;-83
2021/10/22 04:58:05;;;;;;;3.02;1.27;;;;;;;10.06;54.26;96644.54;1686384;84;26392;-83
2021/10/22 05:00:31;;;;;;;3.40;1.45;;;;;;;10.08;53.89;96634.88;1686373;84;25803;-85
2021/10/22 05:02:58;;;;;;;6.10;1.77;;;;;;;10.07;53.81;96634.58;1686349;84;25813;-82
2021/10/22 05:05:25;;;;;;;8.15;1.40;;;;;;;10.09;53.94;96639.22;1686384;85;25779;-82
2021/10/22 05:07:51;;;;;;;5.55;1.87;;;;;;;10.11;53.84;96642.52;1686339;84;27405;-82
2021/10/22 05:10:18;;;;;;;8.85;3.35;;;;;;;10.10;53.78;96644.92;1686370;85;25698;-82
2021/10/22 05:12:45;;;;;;;12.70;5.00;;;;;;;10.09;53.77;96645.44;1686374;84;25703;-83
2021/10/22 05:15:12;;;;;;;7.40;3.75;;;;;;;10.08;53.81;96656.45;1686408;84;25822;-84
2021/10/22 05:17:39;;;;;;;10.38;4.22;;;;;;;10.07;53.84;96661.02;1686442;84;25691;-83
2021/10/22 05:20:09;;;;;;;7.67;3.27;;;;;;;10.07;53.87;96668.28;1668071;84;27424;-84
2021/10/22 05:22:38;;;;;;;6.12;3.33;;;;;;;10.06;53.88;96670.68;1686215;84;25715;-83
2021/10/22 05:25:08;;;;;;;2.62;1.50;;;;;;;10.04;53.92;96674.95;1686469;84;25826;-83
2021/10/22 05:27:34;;;;;;;5.78;1.35;;;;;;;10.01;54.06;96672.72;1685957;83;26471;-83
2021/10/22 05:30:02;;;;;;;5.08;1.30;;;;;;;10.03;54.34;96678.69;1686363;84;25818;-81
2021/10/22 05:32:28;;;;;;;5.80;1.22;;;;;;;10.07;54.26;96679.07;1686092;84;28106;-84
2021/10/22 05:34:55;;;;;;;3.98;1.10;;;;;;;10.10;54.12;96686.72;1686105;84;25787;-82
2021/10/22 05:37:22;;;;;;;5.30;1.10;;;;;;;10.09;54.06;96687.23;1686374;84;25779;-84
2021/10/22 05:39:48;;;;;;;4.85;1.95;;;;;;;10.10;53.93;96686.19;1686370;84;25754;-88
2021/10/22 05:42:15;;;;;;;3.08;1.37;;;;;;;10.11;53.95;96687.84;1686461;84;25955;-82
2021/10/22 05:44:42;;;;;;;7.12;2.08;;;;;;;10.11;53.94;96688.37;1686438;84;27214;-81
2021/10/22 05:47:08;;;;;;;5.42;1.65;;;;;;;10.13;54.05;96702.98;1686246;84;25941;-83
2021/10/22 05:49:35;;;;;;;6.05;1.70;;;;;;;10.14;54.05;96708.67;1686298;84;25746;-84
2021/10/22 05:52:03;;;;;;;6.35;1.90;;;;;;;10.14;54.04;96706.80;1686267;84;25724;-84
2021/10/22 05:54:29;;;;;;;3.08;1.80;;;;;;;10.14;54.01;96716.23;1690957;83;25789;-85
2021/10/22 05:56:56;;;;;;;6.00;2.15;;;;;;;10.13;54.02;96715.94;1691493;83;27478;-83
2021/10/22 05:59:22;;;;;;;5.40;1.90;;;;;;;10.15;54.10;96729.16;1691495;83;25766;-87
2021/10/22 06:01:50;;;;;;;6.45;2.08;;;;;;;10.15;54.15;96727.30;1691638;83;25868;-84
2021/10/22 06:04:16;;;;;;;5.30;1.62;;;;;;;10.15;54.20;96732.69;1712835;83;25765;-83
2021/10/22 06:06:43;;;;;;;4.20;2.25;;;;;;;10.17;54.24;96733.30;1691666;83;25754;-83
2021/10/22 06:09:11;;;;;;;6.15;3.27;;;;;;;10.19;54.33;96740.67;1691540;83;27525;-83
2021/10/22 06:11:39;;;;;;;8.38;2.67;;;;;;;10.20;54.39;96749.06;1691648;83;25742;-83
2021/10/22 06:14:06;;;;;;;6.65;2.72;;;;;;;10.19;54.37;96744.72;1691800;83;25925;-84
2021/10/22 06:16:34;;;;;;;5.20;2.02;;;;;;;10.20;54.36;96743.67;1691213;83;25810;-88
2021/10/22 06:19:04;;;;;;;7.58;1.50;;;;;;;10.22;54.35;96755.06;1691673;83;25770;-81
2021/10/22 06:21:54;;;;;;;4.87;1.22;;;;;;;10.23;54.28;96754.02;1692738;83;27329;-84
2021/10/22 06:24:07;;;;;;;7.22;1.77;;;;;;;10.23;54.24;96751.33;1687224;83;25813;-82
2021/10/22 06:26:42;;;;;;;11.53;1.67;;;;;;;10.28;54.17;96752.80;1698096;83;25770;-82
2021/10/22 06:29:12;;;;;;;6.45;1.40;;;;;;;10.30;54.28;96750.70;1698200;83;25862;-82
2021/10/22 06:31:41;;;;;;;4.15;1.85;;;;;;;10.33;54.26;96753.48;1698096;83;25740;-83
2021/10/22 06:34:09;;;;;;;3.45;1.87;;;;;;;10.35;54.46;96759.48;1698146;84;27373;-83
2021/10/22 06:36:36;;;;;;;9.53;2.05;;;;;;;10.36;54.38;96761.97;1698950;83;26452;-83
2021/10/22 06:39:04;;;;;;;3.27;1.90;;;;;;;10.39;54.43;96772.28;1698121;84;25274;-84
2021/10/22 06:41:35;;;;;;;3.35;1.77;;;;;;;10.38;54.41;96768.48;1698095;83;25735;-83
2021/10/22 06:44:01;;;;;;;3.85;1.55;;;;;;;10.39;54.33;96768.76;1698081;83;25772;-87
2021/10/22 06:46:28;;;;;;;4.55;1.82;;;;;;;10.39;54.33;96772.28;1698128;83;27421;-84
2021/10/22 06:48:55;;;;;;;4.60;2.35;;;;;;;10.43;54.33;96781.58;1697836;83;26037;-85
2021/10/22 06:51:22;;;;;;;5.33;1.62;;;;;;;10.46;54.58;96780.31;1698129;84;25732;-84
2021/10/22 06:53:48;;;;;;;6.37;1.45;;;;;;;10.50;54.62;96781.52;1695547;83;25794;-86
2021/10/22 06:56:15;;;;;;;4.95;1.40;;;;;;;10.57;54.72;96792.22;1693884;83;25791;-84
2021/10/22 06:58:42;;;;;;;4.53;1.52;;;;;;;10.60;54.42;96789.08;1693806;83;27381;-87
2021/10/22 07:01:09;;;;;;;5.75;1.92;;;;;;;10.62;54.64;96793.73;1693778;84;26047;-84
2021/10/22 07:03:39;;;;;;;4.40;2.00;;;;;;;10.55;54.55;96788.92;1693851;83;25841;-83
2021/10/22 07:08:53;;;;;;;3.72;1.72;;;;;;;10.55;54.59;96797.02;1693560;84;25771;-88
2021/10/22 07:11:21;;;;;;;5.62;1.47;;;;;;;10.58;54.82;96808.19;1693946;83;27317;-84
2021/10/22 07:13:53;;;;;;;5.95;1.70;;;;;;;10.55;54.76;96803.23;1694554;83;25815;-84
2021/10/22 07:16:21;;;;;;;10.93;3.83;;;;;;;10.53;54.64;96816.13;1694080;83;26067;-84
2021/10/22 07:18:53;;;;;;;24.52;9.55;;;;;;;10.56;54.82;96812.16;1693790;84;25781;-86
2021/10/22 07:21:18;;;;;;;7.90;3.45;;;;;;;10.60;54.69;96821.47;1692914;84;26523;-84
2021/10/22 07:23:48;;;;;;;9.43;3.20;;;;;;;10.62;54.44;96820.20;1678072;84;28307;-84
2021/10/22 07:26:17;;;;;;;5.65;2.55;;;;;;;10.66;54.40;96820.55;1693668;83;25811;-84
2021/10/22 07:28:44;;;;;;;5.58;2.50;;;;;;;10.66;54.34;96825.95;1693890;83;25739;-88
2021/10/22 07:31:12;;;;;;;4.12;2.10;;;;;;;10.66;54.46;96815.98;1693879;83;26387;-84
2021/10/22 07:33:41;;;;;;;5.25;1.80;;;;;;;10.63;54.38;96822.34;1693738;83;25655;-87
2021/10/22 07:36:12;;;;;;;2.75;1.40;;;;;;;10.61;54.09;96825.81;1693967;83;27373;-84
2021/10/22 07:38:41;;;;;;;2.27;1.20;;;;;;;10.59;54.14;96823.86;1693872;83;25775;-84
2021/10/22 07:41:07;;;;;;;4.92;1.25;;;;;;;10.58;54.13;96831.66;1694010;83;25773;-83
2021/10/22 07:43:36;;;;;;;3.83;1.30;;;;;;;10.57;53.81;96842.98;1694029;83;25710;-82
2021/10/22 07:46:03;;;;;;;2.60;1.42;;;;;;;10.55;53.67;96836.97;1693829;83;25783;-83
2021/10/22 07:48:29;;;;;;;4.28;1.40;;;;;;;10.51;53.60;96838.98;1694003;83;27459;-84
2021/10/22 07:50:56;;;;;;;5.58;1.67;;;;;;;10.51;53.64;96843.03;1693849;83;25763;-85
2021/10/22 07:53:24;;;;;;;2.45;1.62;;;;;;;10.51;53.70;96839.81;1693797;83;25795;-83
2021/10/22 07:55:50;;;;;;;2.85;1.30;;;;;;;10.54;53.53;96848.81;1693951;83;25845;-82
2021/10/22 07:58:19;;;;;;;3.15;1.30;;;;;;;10.56;53.24;96845.89;1694043;83;25656;-82
2021/10/22 08:00:46;;;;;;;3.60;1.30;;;;;;;10.52;53.09;96851.43;1693956;83;28408;-82
2021/10/22 08:03:12;;;;;;;2.35;1.10;;;;;;;10.53;52.83;96843.64;1693865;83;25297;-84
2021/10/22 08:05:40;;;;;;;2.98;1.20;;;;;;;10.54;52.65;96847.98;1693940;84;25862;-83
2021/10/22 08:08:08;;;;;;;3.08;1.05;;;;;;;10.56;52.58;96845.37;1693993;83;26489;-84
2021/10/22 08:10:35;;;;;;;1.95;1.10;;;;;;;10.58;52.42;96846.50;1693959;83;25753;-84
2021/10/22 08:13:02;;;;;;;4.35;1.10;;;;;;;10.58;52.39;96847.85;1693920;84;27449;-83
2021/10/22 08:15:29;;;;;;;1.52;1.20;;;;;;;10.58;52.32;96850.55;1693903;83;25687;-83
2021/10/22 08:17:55;;;;;;;2.00;1.17;;;;;;;10.59;52.21;96847.63;1694042;83;25770;-81
2021/10/22 08:20:24;;;;;;;3.58;1.02;;;;;;;10.58;52.08;96851.90;1694010;83;25739;-82
2021/10/22 08:22:52;;;;;;;1.55;0.90;;;;;;;10.57;51.76;96851.59;1693982;83;25777;-84
2021/10/22 08:25:21;;;;;;;4.28;3.45;;;;;;;10.65;51.86;96855.33;1693958;83;28336;-85
2021/10/22 08:27:49;;;;;;;3.95;2.27;;;;;;;10.75;51.84;96855.10;1693822;83;25631;-82
2021/10/22 08:30:22;;;;;;;2.90;1.10;;;;;;;10.82;51.85;96865.84;1693646;83;25755;-87
2021/10/22 08:32:55;;;;;;;1.77;0.98;;;;;;;10.89;51.65;96849.02;1693977;83;26423;-86
2021/10/22 08:35:25;;;;;;;3.67;1.10;;;;;;;11.02;51.73;96858.31;1693649;84;25730;-82
2021/10/22 08:37:53;;;;;;;2.50;1.07;;;;;;;11.06;51.54;96862.22;1693776;83;27332;-81
2021/10/22 08:40:21;;;;;;;2.17;1.00;;;;;;;11.07;51.37;96855.77;1693954;83;25746;-83
2021/10/22 08:42:49;;;;;;;6.12;1.30;;;;;;;11.10;51.20;96864.77;1693907;83;25712;-84
2021/10/22 08:45:18;;;;;;;2.65;1.00;;;;;;;11.13;51.26;96854.84;1693969;83;25723;-84
2021/10/22 08:47:46;;;;;;;4.53;0.88;;;;;;;11.17;50.84;96863.32;1693914;83;25775;-83
2021/10/22 08:50:17;;;;;;;3.60;1.20;;;;;;;11.17;50.86;96860.09;1693838;83;27285;-82
2021/10/22 08:52:47;;;;;;;3.20;1.22;;;;;;;11.19;50.88;96872.85;1693840;83;25821;-84
2021/10/22 08:55:15;;;;;;;2.90;1.20;;;;;;;11.19;50.74;96872.02;1697140;83;25897;-83
2021/10/22 08:57:44;;;;;;;2.00;0.93;;;;;;;11.16;50.44;96870.59;1698306;83;25898;-83
2021/10/22 09:00:15;;;;;;;1.90;0.80;;;;;;;11.14;50.26;96871.34;1718688;81;25768;-84
2021/10/22 09:02:48;;;;;;;2.35;1.10;;;;;;;11.11;50.06;96876.37;1696319;83;28192;-82
2021/10/22 09:05:22;;;;;;;1.22;0.98;;;;;;;11.07;49.90;96863.87;1698140;83;25771;-82
2021/10/22 09:07:53;;;;;;;1.65;0.98;;;;;;;11.09;49.91;96871.75;1698182;83;25831;-83
2021/10/22 09:10:24;;;;;;;3.30;1.52;;;;;;;11.08;49.85;96879.02;1698145;83;25749;-85
2021/10/22 09:13:01;;;;;;;2.27;1.37;;;;;;;11.06;49.87;96877.07;1698201;83;25772;-84
2021/10/22 09:15:32;;;;;;;3.55;1.35;;;;;;;11.06;49.80;96876.25;1698262;84;27475;-84
2021/10/22 09:18:07;;;;;;;1.70;1.40;;;;;;;11.07;49.76;96873.84;1698184;83;25731;-86
2021/10/22 09:20:32;;;;;;;1.70;1.25;;;;;;;11.08;49.83;96876.32;1698144;82;25829;-85
2021/10/22 09:23:02;;;;;;;2.72;1.00;;;;;;;11.08;50.05;96870.92;1698173;83;26405;-85
2021/10/22 09:25:32;;;;;;;2.05;1.30;;;;;;;11.10;49.95;96878.28;1698170;83;25765;-84
2021/10/22 09:28:01;;;;;;;1.72;1.00;;;;;;;11.13;50.11;96881.84;1698153;84;27438;-84
2021/10/22 09:30:44;;;;;;;1.70;1.27;;;;;;;11.15;49.87;96885.16;1698038;84;25904;-83
2021/10/22 09:33:18;;;;;;;2.55;1.15;;;;;;;11.17;49.88;96881.70;1698191;83;25743;-81
2021/10/22 09:35:50;;;;;;;3.83;1.27;;;;;;;11.24;50.00;96890.23;1698276;83;26572;-87
2021/10/22 09:38:29;;;;;;;2.83;1.10;;;;;;;11.28;49.94;96877.92;1698258;83;25782;-83
2021/10/22 09:41:04;;;;;;;5.62;1.15;;;;;;;11.33;49.92;96888.89;1698158;84;27426;-85
2021/10/22 09:43:34;;;;;;;2.12;1.67;;;;;;;11.41;50.15;96881.28;1698013;84;25740;-84
2021/10/22 09:46:17;;;;;;;1.92;1.22;;;;;;;11.46;50.12;96883.30;1698132;83;25723;-84
2021/10/22 09:48:51;;;;;;;2.98;1.50;;;;;;;11.51;49.92;96886.13;1697659;83;26414;-83
2021/10/22 09:51:33;;;;;;;3.22;1.27;;;;;;;11.57;49.92;96883.05;1698206;83;25679;-84
2021/10/22 09:54:09;;;;;;;2.03;1.50;;;;;;;11.59;49.87;96873.66;1697419;83;27434;-83
2021/10/22 09:56:44;;;;;;;2.05;1.52;;;;;;;11.63;49.96;96887.52;1693376;83;26084;-84
2021/10/22 09:59:23;;;;;;;7.70;1.47;;;;;;;11.65;49.89;96881.35;1698102;83;26468;-88
2021/10/22 10:01:48;;;;;;;4.50;1.60;;;;;;;11.68;49.80;96877.67;1698463;82;25742;-83
2021/10/22 10:04:15;;;;;;;2.27;1.30;;;;;;;11.73;49.72;96883.72;1698130;83;25768;-84
2021/10/22 10:06:47;;;;;;;3.72;1.30;;;;;;;11.76;49.73;96880.06;1698077;83;27384;-85
2021/10/22 10:09:14;;;;;;;1.47;0.82;;;;;;;11.80;49.28;96882.61;1698219;83;25898;-81
2021/10/22 10:11:45;;;;;;;1.98;0.90;;;;;;;11.77;48.98;96880.36;1698172;83;25846;-81
2021/10/22 10:14:14;;;;;;;2.00;1.20;;;;;;;11.69;48.94;96881.20;1698335;83;25836;-84
2021/10/22 10:16:42;;;;;;;1.50;0.80;;;;;;;11.63;48.65;96888.34;1698092;83;25928;-83
2021/10/22 10:19:24;;;;;;;1.70;0.72;;;;;;;11.58;48.55;96876.06;1698204;83;28187;-84
2021/10/22 10:22:09;;;;;;;0.57;0.47;;;;;;;11.64;48.56;96885.11;1697966;83;25833;-83
2021/10/22 10:24:52;;;;;;;1.82;0.80;;;;;;;11.70;48.09;96860.70;1698054;83;25740;-81
2021/10/22 10:27:24;;;;;;;1.25;0.68;;;;;;;11.84;47.57;96867.55;1698031;83;25915;-88
2021/10/22 10:29:59;;;;;;;2.42;0.60;;;;;;;11.78;47.09;96873.91;1698233;83;25790;-82
2021/10/22 10:32:30;;;;;;;0.60;0.40;;;;;;;11.69;46.83;96869.86;1698217;84;28066;-84
2021/10/22 10:35:02;;;;;;;1.95;0.70;;;;;;;11.65;46.87;96870.02;1698002;83;25939;-82
2021/10/22 10:37:36;;;;;;;4.10;0.90;;;;;;;11.59;46.77;96870.95;1698208;83;25708;-82
2021/10/22 10:40:24;;;;;;;3.15;1.00;;;;;;;11.58;46.97;96862.55;1698071;83;25908;-83
2021/10/22 10:43:01;;;;;;;7.30;4.28;;;;;;;11.60;46.89;96865.81;1697795;84;25755;-83
2021/10/22 10:45:36;;;;;;;3.80;1.87;;;;;;;11.65;46.17;96851.62;1698056;84;28372;-82
2021/10/22 10:48:10;;;;;;;3.47;0.90;;;;;;;11.84;45.92;96852.67;1698170;82;25902;-83
2021/10/22 10:50:53;;;;;;;2.58;1.25;;;;;;;12.25;45.57;96853.67;1698077;84;25764;-84
2021/10/22 10:53:36;;;;;;;1.57;0.98;;;;;;;12.73;45.73;96848.51;1695702;83;26488;-85
2021/10/22 10:56:34;;;;;;;2.50;0.80;;;;;;;13.05;45.24;96842.94;1697874;83;25748;-86
2021/10/22 10:59:01;;;;;;;1.70;0.90;;;;;;;13.45;44.75;96835.34;1697977;83;27399;-83
2021/10/22 11:01:37;;;;;;;2.10;0.82;;;;;;;13.90;44.36;96840.73;1697111;83;25777;-82
2021/10/22 11:04:05;;;;;;;3.27;0.85;;;;;;;14.28;43.94;96840.81;1697888;83;25789;-83
2021/10/22 11:06:47;;;;;;;1.70;1.10;;;;;;;14.72;43.64;96837.70;1698027;83;25799;-84
2021/10/22 11:09:32;;;;;;;1.22;0.68;;;;;;;15.07;43.01;96829.71;1698536;82;25716;-88
2021/10/22 11:12:04;;;;;;;2.15;0.90;;;;;;;15.42;42.52;96827.39;1698552;82;27214;-82
2021/10/22 11:14:43;;;;;;;8.68;1.10;;;;;;;15.54;41.82;96823.70;1698263;84;32205;-83
2021/10/22 11:17:13;;;;;;;2.12;1.07;;;;;;;15.61;40.84;96816.98;1698167;83;25787;-84
2021/10/22 11:19:42;;;;;;;2.22;1.10;;;;;;;15.67;39.87;96828.75;1698139;83;26326;-84
2021/10/22 11:22:23;;;;;;;2.55;1.00;;;;;;;15.68;40.00;96816.80;1697895;83;25775;-84
2021/10/22 11:24:50;;;;;;;1.95;1.00;;;;;;;15.89;40.43;96810.45;1684020;84;27381;-84
2021/10/22 11:27:20;;;;;;;1.27;0.82;;;;;;;16.17;40.14;96804.70;1692308;83;25783;-86
2021/10/22 11:29:54;;;;;;;3.35;0.90;;;;;;;16.31;39.67;96809.66;1692355;83;25612;-83
2021/10/22 11:32:24;;;;;;;1.45;0.98;;;;;;;16.33;39.18;96803.42;1692451;84;25941;-86
2021/10/22 11:35:01;;;;;;;1.15;0.78;;;;;;;16.34;38.81;96803.70;1692453;83;25736;-84
2021/10/22 11:37:39;;;;;;;2.22;1.05;;;;;;;16.33;38.24;96810.23;1692198;83;28257;-85
2021/10/22 11:40:14;;;;;;;1.90;1.10;;;;;;;16.38;38.45;96814.36;1696777;83;25760;-85
2021/10/22 11:42:41;;;;;;;3.15;0.98;;;;;;;16.47;37.67;96815.50;1692561;83;25906;-84
2021/10/22 11:45:16;;;;;;;2.98;0.93;;;;;;;16.44;37.53;96825.55;1692434;83;25806;-85
2021/10/22 11:47:55;;;;;;;1.50;0.88;;;;;;;16.49;37.51;96824.23;1692493;83;25573;-83